sensor_id;sensor_type;location;lat;lon;timestamp;pressure;altitude;pressure_sealevel;temperature;humidity
61119;BME280;51448;51.660;5.824;2024-02-04T00:00:23;102265.16;;;10.65;100.00
61119;BME280;51448;51.660;5.824;2024-02-04T00:02:53;102266.28;;;10.64;100.00
61119;BME280;51448;51.660;5.824;2024-02-04T00:05:22;102265.47;;;10.63;100.00
61119;BME280;51448;51.660;5.824;2024-02-04T00:07:50;102269.88;;;10.64;100.00
61119;BME280;51448;51.660;5.824;2024-02-04T00:10:19;102272.06;;;10.67;100.00
61119;BME280;51448;51.660;5.824;2024-02-04T00:12:48;102270.44;;;10.66;100.00
61119;BME280;51448;51.660;5.824;2024-02-04T00:15:17;102257.44;;;10.67;100.00
61119;BME280;51448;51.660;5.824;2024-02-04T00:17:47;102261.84;;;10.68;100.00
61119;BME280;51448;51.660;5.824;2024-02-04T00:20:16;102269.31;;;10.67;100.00
61119;BME280;51448;51.660;5.824;2024-02-04T00:22:45;102262.97;;;10.67;100.00
61119;BME280;51448;51.660;5.824;2024-02-04T00:25:13;102266.84;;;10.66;100.00
61119;BME280;51448;51.660;5.824;2024-02-04T00:27:44;102268.50;;;10.67;100.00
61119;BME280;51448;51.660;5.824;2024-02-04T00:30:13;102272.06;;;10.67;100.00
61119;BME280;51448;51.660;5.824;2024-02-04T00:32:41;102264.91;;;10.66;100.00
61119;BME280;51448;51.660;5.824;2024-02-04T00:35:12;102265.72;;;10.67;100.00
61119;BME280;51448;51.660;5.824;2024-02-04T00:37:41;102271.25;;;10.67;100.00
61119;BME280;51448;51.660;5.824;2024-02-04T00:40:10;102272.91;;;10.68;100.00
61119;BME280;51448;51.660;5.824;2024-02-04T00:42:40;102277.31;;;10.69;100.00
61119;BME280;51448;51.660;5.824;2024-02-04T00:45:09;102265.97;;;10.70;100.00
61119;BME280;51448;51.660;5.824;2024-02-04T00:47:38;102263.75;;;10.72;100.00
61119;BME280;51448;51.660;5.824;2024-02-04T00:50:07;102270.63;;;10.75;100.00
61119;BME280;51448;51.660;5.824;2024-02-04T00:52:38;102267.34;;;10.73;100.00
61119;BME280;51448;51.660;5.824;2024-02-04T00:55:06;102274.50;;;10.74;100.00
61119;BME280;51448;51.660;5.824;2024-02-04T00:57:35;102277.81;;;10.76;100.00
61119;BME280;51448;51.660;5.824;2024-02-04T01:00:04;102280.31;;;10.77;100.00
61119;BME280;51448;51.660;5.824;2024-02-04T01:02:34;102281.13;;;10.78;100.00
61119;BME280;51448;51.660;5.824;2024-02-04T01:05:03;102281.66;;;10.80;100.00
61119;BME280;51448;51.660;5.824;2024-02-04T01:07:33;102282.47;;;10.80;100.00
61119;BME280;51448;51.660;5.824;2024-02-04T01:10:01;102285.22;;;10.80;100.00
61119;BME280;51448;51.660;5.824;2024-02-04T01:12:34;102281.34;;;10.82;100.00
61119;BME280;51448;51.660;5.824;2024-02-04T01:15:02;102284.69;;;10.84;100.00
61119;BME280;51448;51.660;5.824;2024-02-04T01:17:32;102274.44;;;10.84;100.00
61119;BME280;51448;51.660;5.824;2024-02-04T01:20:02;102277.75;;;10.86;100.00
61119;BME280;51448;51.660;5.824;2024-02-04T01:22:31;102275.81;;;10.87;100.00
61119;BME280;51448;51.660;5.824;2024-02-04T01:25:01;102267.81;;;10.85;100.00
61119;BME280;51448;51.660;5.824;2024-02-04T01:27:29;102265.88;;;10.86;100.00
61119;BME280;51448;51.660;5.824;2024-02-04T01:29:58;102270.56;;;10.85;100.00
61119;BME280;51448;51.660;5.824;2024-02-04T01:32:26;102268.63;;;10.86;100.00
61119;BME280;51448;51.660;5.824;2024-02-04T01:34:55;102274.16;;;10.86;100.00
61119;BME280;51448;51.660;5.824;2024-02-04T01:37:25;102269.75;;;10.85;100.00
61119;BME280;51448;51.660;5.824;2024-02-04T01:39:54;102270.56;;;10.85;100.00
61119;BME280;51448;51.660;5.824;2024-02-04T01:42:24;102266.69;;;10.86;100.00
61119;BME280;51448;51.660;5.824;2024-02-04T01:44:53;102267.00;;;10.85;100.00
61119;BME280;51448;51.660;5.824;2024-02-04T01:47:23;102274.44;;;10.84;100.00
61119;BME280;51448;51.660;5.824;2024-02-04T01:49:52;102279.97;;;10.84;100.00
61119;BME280;51448;51.660;5.824;2024-02-04T01:52:22;102276.09;;;10.85;100.00
61119;BME280;51448;51.660;5.824;2024-02-04T01:54:55;102274.16;;;10.86;100.00
61119;BME280;51448;51.660;5.824;2024-02-04T01:57:24;102274.44;;;10.84;100.00
61119;BME280;51448;51.660;5.824;2024-02-04T01:59:53;102267.28;;;10.83;100.00
61119;BME280;51448;51.660;5.824;2024-02-04T02:02:26;102273.34;;;10.85;100.00
61119;BME280;51448;51.660;5.824;2024-02-04T02:04:58;102275.56;;;10.83;100.00
61119;BME280;51448;51.660;5.824;2024-02-04T02:07:27;102277.50;;;10.83;100.00
61119;BME280;51448;51.660;5.824;2024-02-04T02:09:59;102267.56;;;10.82;100.00
61119;BME280;51448;51.660;5.824;2024-02-04T02:12:36;102278.34;;;10.83;100.00
61119;BME280;51448;51.660;5.824;2024-02-04T02:15:15;102275.84;;;10.82;100.00
61119;BME280;51448;51.660;5.824;2024-02-04T02:17:52;102278.59;;;10.82;100.00
61119;BME280;51448;51.660;5.824;2024-02-04T02:24:03;102269.50;;;10.81;100.00
61119;BME280;51448;51.660;5.824;2024-02-04T02:26:38;102281.34;;;10.82;100.00
61119;BME280;51448;51.660;5.824;2024-02-04T02:29:08;102278.88;;;10.80;100.00
61119;BME280;51448;51.660;5.824;2024-02-04T02:31:41;102272.25;;;10.81;100.00
61119;BME280;51448;51.660;5.824;2024-02-04T02:34:16;102263.97;;;10.81;100.00
61119;BME280;51448;51.660;5.824;2024-02-04T02:37:22;102252.66;;;10.83;100.00
61119;BME280;51448;51.660;5.824;2024-02-04T02:40:01;102252.66;;;10.83;100.00
61119;BME280;51448;51.660;5.824;2024-02-04T02:42:38;102253.47;;;10.83;100.00
61119;BME280;51448;51.660;5.824;2024-02-04T02:45:11;102250.97;;;10.82;100.00
61119;BME280;51448;51.660;5.824;2024-02-04T02:47:41;102244.63;;;10.81;100.00
61119;BME280;51448;51.660;5.824;2024-02-04T02:50:12;102240.22;;;10.80;100.00
61119;BME280;51448;51.660;5.824;2024-02-04T02:52:41;102239.13;;;10.81;100.00
61119;BME280;51448;51.660;5.824;2024-02-04T02:55:12;102243.00;;;10.80;100.00
61119;BME280;51448;51.660;5.824;2024-02-04T02:57:43;102253.47;;;10.83;100.00
61119;BME280;51448;51.660;5.824;2024-02-04T03:00:11;102246.56;;;10.80;100.00
61119;BME280;51448;51.660;5.824;2024-02-04T03:02:43;102241.63;;;10.83;100.00
61119;BME280;51448;51.660;5.824;2024-02-04T03:05:12;102232.50;;;10.82;100.00
61119;BME280;51448;51.660;5.824;2024-02-04T03:07:40;102225.88;;;10.83;100.00
61119;BME280;51448;51.660;5.824;2024-02-04T03:10:09;102236.63;;;10.85;100.00
61119;BME280;51448;51.660;5.824;2024-02-04T03:12:37;102234.69;;;10.85;100.00
61119;BME280;51448;51.660;5.824;2024-02-04T03:15:07;102229.16;;;10.85;100.00
61119;BME280;51448;51.660;5.824;2024-02-04T03:17:35;102241.84;;;10.86;100.00
61119;BME280;51448;51.660;5.824;2024-02-04T03:20:03;102237.97;;;10.87;100.00
61119;BME280;51448;51.660;5.824;2024-02-04T03:22:31;102233.28;;;10.88;100.00
61119;BME280;51448;51.660;5.824;2024-02-04T03:25:00;102224.16;;;10.87;100.00
61119;BME280;51448;51.660;5.824;2024-02-04T03:27:31;102243.22;;;10.89;100.00
61119;BME280;51448;51.660;5.824;2024-02-04T03:29:59;102239.63;;;10.88;100.00
61119;BME280;51448;51.660;5.824;2024-02-04T03:32:26;102240.72;;;10.87;100.00
61119;BME280;51448;51.660;5.824;2024-02-04T03:34:54;102229.69;;;10.87;100.00
61119;BME280;51448;51.660;5.824;2024-02-04T03:37:22;102228.84;;;10.87;100.00
61119;BME280;51448;51.660;5.824;2024-02-04T03:39:49;102238.25;;;10.86;100.00
61119;BME280;51448;51.660;5.824;2024-02-04T03:42:17;102234.13;;;10.88;100.00
61119;BME280;51448;51.660;5.824;2024-02-04T03:44:46;102240.72;;;10.87;100.00
61119;BME280;51448;51.660;5.824;2024-02-04T03:47:14;102233.56;;;10.86;100.00
61119;BME280;51448;51.660;5.824;2024-02-04T03:49:41;102241.03;;;10.86;100.00
61119;BME280;51448;51.660;5.824;2024-02-04T03:52:09;102245.16;;;10.88;100.00
61119;BME280;51448;51.660;5.824;2024-02-04T03:54:37;102252.63;;;10.88;100.00
61119;BME280;51448;51.660;5.824;2024-02-04T03:57:05;102249.31;;;10.86;100.00
61119;BME280;51448;51.660;5.824;2024-02-04T03:59:34;102244.91;;;10.85;100.00
61119;BME280;51448;51.660;5.824;2024-02-04T04:02:01;102245.72;;;10.85;100.00
61119;BME280;51448;51.660;5.824;2024-02-04T04:04:29;102241.03;;;10.86;100.00
61119;BME280;51448;51.660;5.824;2024-02-04T04:06:57;102255.41;;;10.83;100.00
61119;BME280;51448;51.660;5.824;2024-02-04T04:09:25;102256.50;;;10.82;100.00
61119;BME280;51448;51.660;5.824;2024-02-04T04:11:52;102256.25;;;10.83;100.00
61119;BME280;51448;51.660;5.824;2024-02-04T04:14:20;102256.25;;;10.83;100.00
61119;BME280;51448;51.660;5.824;2024-02-04T04:16:49;102277.22;;;10.84;100.00
61119;BME280;51448;51.660;5.824;2024-02-04T04:19:17;102279.16;;;10.84;100.00
61119;BME280;51448;51.660;5.824;2024-02-04T04:21:46;102278.34;;;10.83;100.00
61119;BME280;51448;51.660;5.824;2024-02-04T04:24:15;102271.16;;;10.82;100.00
61119;BME280;51448;51.660;5.824;2024-02-04T04:26:47;102251.03;;;10.76;100.00
61119;BME280;51448;51.660;5.824;2024-02-04T04:29:15;102245.53;;;10.76;100.00
61119;BME280;51448;51.660;5.824;2024-02-04T04:31:45;102230.03;;;10.75;100.00
61119;BME280;51448;51.660;5.824;2024-02-04T04:34:13;102235.31;;;10.77;100.00
61119;BME280;51448;51.660;5.824;2024-02-04T04:36:41;102228.66;;;10.78;100.00
61119;BME280;51448;51.660;5.824;2024-02-04T04:39:10;102229.78;;;10.77;100.00
61119;BME280;51448;51.660;5.824;2024-02-04T04:41:39;102226.19;;;10.76;100.00
61119;BME280;51448;51.660;5.824;2024-02-04T04:44:08;102235.31;;;10.77;100.00
61119;BME280;51448;51.660;5.824;2024-02-04T04:46:39;102236.94;;;10.78;100.00
61119;BME280;51448;51.660;5.824;2024-02-04T04:49:07;102225.34;;;10.76;100.00
61119;BME280;51448;51.660;5.824;2024-02-04T04:51:37;102209.63;;;10.76;100.00
61119;BME280;51448;51.660;5.824;2024-02-04T04:54:05;102207.94;;;10.75;100.00
61119;BME280;51448;51.660;5.824;2024-02-04T04:56:40;102212.66;;;10.75;100.00
61119;BME280;51448;51.660;5.824;2024-02-04T04:59:10;102221.22;;;10.73;100.00
61119;BME280;51448;51.660;5.824;2024-02-04T05:01:45;102210.75;;;10.70;100.00
61119;BME280;51448;51.660;5.824;2024-02-04T05:04:17;102198.88;;;10.70;100.00
61119;BME280;51448;51.660;5.824;2024-02-04T05:06:46;102192.25;;;10.71;100.00
61119;BME280;51448;51.660;5.824;2024-02-04T05:09:15;102188.66;;;10.70;100.00
61119;BME280;51448;51.660;5.824;2024-02-04T05:11:43;102191.16;;;10.72;100.00
61119;BME280;51448;51.660;5.824;2024-02-04T05:14:11;102200.78;;;10.74;100.00
61119;BME280;51448;51.660;5.824;2024-02-04T05:16:38;102193.09;;;10.71;100.00
61119;BME280;51448;51.660;5.824;2024-02-04T05:19:06;102190.91;;;10.68;100.00
61119;BME280;51448;51.660;5.824;2024-02-04T05:21:38;102182.63;;;10.68;100.00
61119;BME280;51448;51.660;5.824;2024-02-04T05:24:07;102184.25;;;10.69;100.00
61119;BME280;51448;51.660;5.824;2024-02-04T05:26:35;102182.31;;;10.70;100.00
61119;BME280;51448;51.660;5.824;2024-02-04T05:29:02;102176.78;;;10.70;100.00
61119;BME280;51448;51.660;5.824;2024-02-04T05:31:30;102177.91;;;10.69;100.00
61119;BME280;51448;51.660;5.824;2024-02-04T05:33:57;102184.25;;;10.69;100.00
61119;BME280;51448;51.660;5.824;2024-02-04T05:36:25;102179.03;;;10.68;100.00
61119;BME280;51448;51.660;5.824;2024-02-04T05:38:52;102197.25;;;10.69;100.00
61119;BME280;51448;51.660;5.824;2024-02-04T05:41:20;102177.91;;;10.69;100.00
61119;BME280;51448;51.660;5.824;2024-02-04T05:43:47;102171.56;;;10.68;100.00
61119;BME280;51448;51.660;5.824;2024-02-04T05:46:15;102183.44;;;10.69;100.00
61119;BME280;51448;51.660;5.824;2024-02-04T05:48:43;102182.63;;;10.68;100.00
61119;BME280;51448;51.660;5.824;2024-02-04T05:51:12;102186.50;;;10.67;100.00
61119;BME280;51448;51.660;5.824;2024-02-04T05:53:40;102187.84;;;10.70;100.00
61119;BME280;51448;51.660;5.824;2024-02-04T05:56:07;102201.94;;;10.68;100.00
61119;BME280;51448;51.660;5.824;2024-02-04T05:58:35;102199.47;;;10.67;100.00
61119;BME280;51448;51.660;5.824;2024-02-04T06:01:03;102177.91;;;10.69;100.00
61119;BME280;51448;51.660;5.824;2024-02-04T06:03:30;102178.44;;;10.71;100.00
61119;BME280;51448;51.660;5.824;2024-02-04T06:05:58;102180.94;;;10.72;100.00
61119;BME280;51448;51.660;5.824;2024-02-04T06:08:25;102177.59;;;10.75;100.00
61119;BME280;51448;51.660;5.824;2024-02-04T06:10:53;102162.69;;;10.76;100.00
61119;BME280;51448;51.660;5.824;2024-02-04T06:13:20;102166.53;;;10.75;100.00
61119;BME280;51448;51.660;5.824;2024-02-04T06:15:48;102166.53;;;10.75;100.00
61119;BME280;51448;51.660;5.824;2024-02-04T06:18:16;102172.06;;;10.75;100.00
61119;BME280;51448;51.660;5.824;2024-02-04T06:20:43;102170.13;;;10.76;100.00
61119;BME280;51448;51.660;5.824;2024-02-04T06:23:11;102167.34;;;10.76;100.00
61119;BME280;51448;51.660;5.824;2024-02-04T06:25:42;102167.34;;;10.76;100.00
61119;BME280;51448;51.660;5.824;2024-02-04T06:28:10;102175.66;;;10.76;100.00
61119;BME280;51448;51.660;5.824;2024-02-04T06:30:38;102166.53;;;10.75;100.00
61119;BME280;51448;51.660;5.824;2024-02-04T06:33:06;102161.03;;;10.75;100.00
61119;BME280;51448;51.660;5.824;2024-02-04T06:35:34;102153.56;;;10.76;100.00
61119;BME280;51448;51.660;5.824;2024-02-04T06:38:01;102158.00;;;10.77;100.00
61119;BME280;51448;51.660;5.824;2024-02-04T06:40:29;102146.66;;;10.78;100.00
61119;BME280;51448;51.660;5.824;2024-02-04T06:42:58;102137.00;;;10.76;100.00
61119;BME280;51448;51.660;5.824;2024-02-04T06:45:26;102144.19;;;10.77;100.00
61119;BME280;51448;51.660;5.824;2024-02-04T06:47:55;102150.78;;;10.76;100.00
61119;BME280;51448;51.660;5.824;2024-02-04T06:50:23;102142.25;;;10.77;100.00
61119;BME280;51448;51.660;5.824;2024-02-04T06:52:51;102153.56;;;10.76;100.00
61119;BME280;51448;51.660;5.824;2024-02-04T06:55:19;102156.31;;;10.76;100.00
61119;BME280;51448;51.660;5.824;2024-02-04T06:57:46;102159.06;;;10.76;100.00
61119;BME280;51448;51.660;5.824;2024-02-04T07:00:14;102151.66;;;10.76;100.00
61119;BME280;51448;51.660;5.824;2024-02-04T07:02:42;102170.13;;;10.76;100.00
61119;BME280;51448;51.660;5.824;2024-02-04T07:05:11;102162.97;;;10.75;100.00
61119;BME280;51448;51.660;5.824;2024-02-04T07:07:38;102170.13;;;10.76;100.00
61119;BME280;51448;51.660;5.824;2024-02-04T07:10:06;102178.69;;;10.74;100.00
61119;BME280;51448;51.660;5.824;2024-02-04T07:12:35;102172.66;;;10.72;100.00
61119;BME280;51448;51.660;5.824;2024-02-04T07:15:02;102185.03;;;10.75;100.00
61119;BME280;51448;51.660;5.824;2024-02-04T07:17:30;102180.63;;;10.74;100.00
61119;BME280;51448;51.660;5.824;2024-02-04T07:19:58;102176.25;;;10.73;100.00
61119;BME280;51448;51.660;5.824;2024-02-04T07:22:26;102187.03;;;10.69;100.00
61119;BME280;51448;51.660;5.824;2024-02-04T07:24:53;102196.13;;;10.70;100.00
61119;BME280;51448;51.660;5.824;2024-02-04T07:27:21;102185.09;;;10.70;100.00
61119;BME280;51448;51.660;5.824;2024-02-04T07:29:49;102186.19;;;10.69;100.00
61119;BME280;51448;51.660;5.824;2024-02-04T07:32:20;102182.31;;;10.70;100.00
61119;BME280;51448;51.660;5.824;2024-02-04T07:34:48;102169.09;;;10.67;100.00
61119;BME280;51448;51.660;5.824;2024-02-04T07:37:16;102173.50;;;10.68;100.00
61119;BME280;51448;51.660;5.824;2024-02-04T07:39:45;102165.22;;;10.68;100.00
61119;BME280;51448;51.660;5.824;2024-02-04T07:42:12;102171.28;;;10.70;100.00
61119;BME280;51448;51.660;5.824;2024-02-04T07:44:40;102166.88;;;10.69;100.00
61119;BME280;51448;51.660;5.824;2024-02-04T07:47:10;102170.47;;;10.69;100.00
61119;BME280;51448;51.660;5.824;2024-02-04T07:49:41;102167.41;;;10.71;100.00
61119;BME280;51448;51.660;5.824;2024-02-04T07:52:08;102156.34;;;10.71;100.00
61119;BME280;51448;51.660;5.824;2024-02-04T07:54:36;102149.50;;;10.68;100.00
61119;BME280;51448;51.660;5.824;2024-02-04T07:57:04;102148.66;;;10.68;100.00
61119;BME280;51448;51.660;5.824;2024-02-04T07:59:31;102145.91;;;10.68;100.00
61119;BME280;51448;51.660;5.824;2024-02-04T08:01:59;102149.78;;;10.67;100.00
61119;BME280;51448;51.660;5.824;2024-02-04T08:04:26;102153.38;;;10.67;100.00
61119;BME280;51448;51.660;5.824;2024-02-04T08:06:54;102158.88;;;10.67;100.00
61119;BME280;51448;51.660;5.824;2024-02-04T08:09:22;102161.34;;;10.69;100.00
61119;BME280;51448;51.660;5.824;2024-02-04T08:11:50;102150.84;;;10.71;100.00
61119;BME280;51448;51.660;5.824;2024-02-04T08:14:17;102152.78;;;10.70;100.00
61119;BME280;51448;51.660;5.824;2024-02-04T08:16:45;102151.13;;;10.69;100.00
61119;BME280;51448;51.660;5.824;2024-02-04T08:19:14;102147.25;;;10.70;100.00
61119;BME280;51448;51.660;5.824;2024-02-04T08:21:42;102131.50;;;10.71;100.00
61119;BME280;51448;51.660;5.824;2024-02-04T08:24:09;102138.69;;;10.72;100.00
61119;BME280;51448;51.660;5.824;2024-02-04T08:26:37;102130.94;;;10.74;100.00
61119;BME280;51448;51.660;5.824;2024-02-04T08:29:04;102125.41;;;10.74;100.00
61119;BME280;51448;51.660;5.824;2024-02-04T08:31:32;102133.41;;;10.75;100.00
61119;BME280;51448;51.660;5.824;2024-02-04T08:34:05;102129.56;;;10.76;100.00
61119;BME280;51448;51.660;5.824;2024-02-04T08:36:36;102128.72;;;10.76;100.00
61119;BME280;51448;51.660;5.824;2024-02-04T08:39:07;102135.34;;;10.75;100.00
61119;BME280;51448;51.660;5.824;2024-02-04T08:41:37;102139.75;;;10.76;100.00
61119;BME280;51448;51.660;5.824;2024-02-04T08:44:07;102136.16;;;10.75;100.00
61119;BME280;51448;51.660;5.824;2024-02-04T08:46:50;102143.06;;;10.78;100.00
61119;BME280;51448;51.660;5.824;2024-02-04T08:49:23;102130.59;;;10.80;100.00
61119;BME280;51448;51.660;5.824;2024-02-04T08:52:02;102145.78;;;10.83;100.00
61119;BME280;51448;51.660;5.824;2024-02-04T08:54:35;102147.44;;;10.84;100.00
61119;BME280;51448;51.660;5.824;2024-02-04T08:57:07;102149.06;;;10.85;100.00
61119;BME280;51448;51.660;5.824;2024-02-04T08:59:39;102152.34;;;10.87;100.00
61119;BME280;51448;51.660;5.824;2024-02-04T09:02:06;102144.03;;;10.92;100.00
61119;BME280;51448;51.660;5.824;2024-02-04T09:04:38;102145.44;;;10.90;100.00
61119;BME280;51448;51.660;5.824;2024-02-04T09:07:08;102144.31;;;10.91;100.00
61119;BME280;51448;51.660;5.824;2024-02-04T09:09:36;102151.78;;;10.90;100.00
61119;BME280;51448;51.660;5.824;2024-02-04T09:12:04;102156.78;;;10.88;100.00
61119;BME280;51448;51.660;5.824;2024-02-04T09:14:32;102146.84;;;10.87;100.00
61119;BME280;51448;51.660;5.824;2024-02-04T09:17:02;102138.28;;;10.89;100.00
61119;BME280;51448;51.660;5.824;2024-02-04T09:19:32;102155.97;;;10.88;100.00
61119;BME280;51448;51.660;5.824;2024-02-04T09:22:01;102144.63;;;10.89;100.00
61119;BME280;51448;51.660;5.824;2024-02-04T09:24:32;102147.88;;;10.96;100.00
61119;BME280;51448;51.660;5.824;2024-02-04T09:27:02;102145.66;;;10.98;100.00
61119;BME280;51448;51.660;5.824;2024-02-04T09:29:30;102143.97;;;10.97;100.00
61119;BME280;51448;51.660;5.824;2024-02-04T09:31:58;102150.59;;;11.01;100.00
61119;BME280;51448;51.660;5.824;2024-02-04T09:34:28;102152.22;;;11.02;100.00
61119;BME280;51448;51.660;5.824;2024-02-04T09:36:59;102150.00;;;11.04;100.00
61119;BME280;51448;51.660;5.824;2024-02-04T09:39:32;102139.50;;;11.06;100.00
61119;BME280;51448;51.660;5.824;2024-02-04T09:42:03;102140.00;;;11.09;100.00
61119;BME280;51448;51.660;5.824;2024-02-04T09:44:33;102146.09;;;11.11;100.00
61119;BME280;51448;51.660;5.824;2024-02-04T09:47:03;102149.06;;;11.14;100.00
61119;BME280;51448;51.660;5.824;2024-02-04T09:49:34;102153.72;;;11.19;100.00
61119;BME280;51448;51.660;5.824;2024-02-04T09:52:07;102153.16;;;11.22;100.00
61119;BME280;51448;51.660;5.824;2024-02-04T09:54:44;102154.22;;;11.26;100.00
61119;BME280;51448;51.660;5.824;2024-02-04T09:57:13;102144.81;;;11.27;100.00
61119;BME280;51448;51.660;5.824;2024-02-04T09:59:44;102142.88;;;11.27;100.00
61119;BME280;51448;51.660;5.824;2024-02-04T10:02:12;102143.41;;;11.29;100.00
61119;BME280;51448;51.660;5.824;2024-02-04T10:04:48;102144.22;;;11.30;100.00
61119;BME280;51448;51.660;5.824;2024-02-04T10:07:16;102147.53;;;11.32;100.00
61119;BME280;51448;51.660;5.824;2024-02-04T10:09:46;102149.16;;;11.33;100.00
61119;BME280;51448;51.660;5.824;2024-02-04T10:12:14;102150.81;;;11.34;100.00
61119;BME280;51448;51.660;5.824;2024-02-04T10:14:41;102154.09;;;11.36;100.00
61119;BME280;51448;51.660;5.824;2024-02-04T10:17:09;102153.53;;;11.39;100.00
61119;BME280;51448;51.660;5.824;2024-02-04T10:19:37;102155.41;;;11.44;100.00
61119;BME280;51448;51.660;5.824;2024-02-04T10:22:05;102155.41;;;11.44;100.00
61119;BME280;51448;51.660;5.824;2024-02-04T10:24:32;102157.31;;;11.48;100.00
61119;BME280;51448;51.660;5.824;2024-02-04T10:27:00;102166.63;;;11.52;100.00
61119;BME280;51448;51.660;5.824;2024-02-04T10:29:28;102173.28;;;11.51;100.00
61119;BME280;51448;51.660;5.824;2024-02-04T10:31:55;102169.41;;;11.52;100.00
61119;BME280;51448;51.660;5.824;2024-02-04T10:34:27;102169.41;;;11.52;100.00
61119;BME280;51448;51.660;5.824;2024-02-04T10:36:57;102169.19;;;11.49;100.00
61119;BME280;51448;51.660;5.824;2024-02-04T10:39:25;102172.00;;;11.44;100.00
61119;BME280;51448;51.660;5.824;2024-02-04T10:41:53;102169.59;;;11.37;100.00
61119;BME280;51448;51.660;5.824;2024-02-04T10:44:21;102169.09;;;11.30;100.00
61119;BME280;51448;51.660;5.824;2024-02-04T10:46:51;102172.19;;;11.23;100.00
61119;BME280;51448;51.660;5.824;2024-02-04T10:49:24;102157.63;;;11.18;100.00
61119;BME280;51448;51.660;5.824;2024-02-04T10:51:56;102151.84;;;11.14;100.00
61119;BME280;51448;51.660;5.824;2024-02-04T10:54:27;102151.00;;;11.14;100.00
61119;BME280;51448;51.660;5.824;2024-02-04T10:57:03;102149.38;;;11.13;100.00
61119;BME280;51448;51.660;5.824;2024-02-04T10:59:34;102149.91;;;11.15;100.00
61119;BME280;51448;51.660;5.824;2024-02-04T11:02:05;102155.16;;;11.16;100.00
61119;BME280;51448;51.660;5.824;2024-02-04T11:04:34;102152.09;;;11.18;100.00
61119;BME280;51448;51.660;5.824;2024-02-04T11:07:03;102144.09;;;11.16;100.00
61119;BME280;51448;51.660;5.824;2024-02-04T11:09:32;102143.78;;;11.18;100.00
61119;BME280;51448;51.660;5.824;2024-02-04T11:12:01;102140.47;;;11.21;100.00
61119;BME280;51448;51.660;5.824;2024-02-04T11:14:33;102143.22;;;11.21;100.00
61119;BME280;51448;51.660;5.824;2024-02-04T11:20:23;102139.59;;;11.25;100.00
61119;BME280;51448;51.660;5.824;2024-02-04T11:26:13;102126.59;;;11.26;100.00
61119;BME280;51448;51.660;5.824;2024-02-04T11:28:44;102114.72;;;11.25;100.00
61119;BME280;51448;51.660;5.824;2024-02-04T11:31:17;102120.25;;;11.25;100.00
61119;BME280;51448;51.660;5.824;2024-02-04T11:34:08;102110.03;;;11.26;100.00
61119;BME280;51448;51.660;5.824;2024-02-04T11:36:45;102109.72;;;11.27;100.00
61119;BME280;51448;51.660;5.824;2024-02-04T11:39:18;102113.31;;;11.28;100.00
61119;BME280;51448;51.660;5.824;2024-02-04T11:41:53;102113.31;;;11.28;100.00
61119;BME280;51448;51.660;5.824;2024-02-04T11:44:23;102116.88;;;11.28;100.00
61119;BME280;51448;51.660;5.824;2024-02-04T11:47:01;102107.47;;;11.29;100.00
61119;BME280;51448;51.660;5.824;2024-02-04T11:49:38;102112.72;;;11.31;100.00
61119;BME280;51448;51.660;5.824;2024-02-04T11:52:18;102123.22;;;11.29;100.00
61119;BME280;51448;51.660;5.824;2024-02-04T11:54:49;102111.66;;;11.27;100.00
61119;BME280;51448;51.660;5.824;2024-02-04T11:57:21;102107.53;;;11.24;100.00
61119;BME280;51448;51.660;5.824;2024-02-04T12:04:16;102099.53;;;11.23;100.00
61119;BME280;51448;51.660;5.824;2024-02-04T12:07:30;102092.88;;;11.24;100.00
61119;BME280;51448;51.660;5.824;2024-02-04T12:10:04;102088.19;;;11.24;100.00
61119;BME280;51448;51.660;5.824;2024-02-04T12:12:34;102093.72;;;11.24;100.00
61119;BME280;51448;51.660;5.824;2024-02-04T12:15:02;102079.06;;;11.24;100.00
61119;BME280;51448;51.660;5.824;2024-02-04T12:17:31;102080.19;;;11.23;100.00
61119;BME280;51448;51.660;5.824;2024-02-04T12:19:59;102069.66;;;11.25;100.00
61119;BME280;51448;51.660;5.824;2024-02-04T12:22:28;102076.84;;;11.26;100.00
61119;BME280;51448;51.660;5.824;2024-02-04T12:24:58;102075.19;;;11.25;100.00
61119;BME280;51448;51.660;5.824;2024-02-04T12:27:34;102083.78;;;11.23;100.00
61119;BME280;51448;51.660;5.824;2024-02-04T12:30:05;102084.59;;;11.24;100.00
61119;BME280;51448;51.660;5.824;2024-02-04T12:32:37;102084.09;;;11.22;100.00
61119;BME280;51448;51.660;5.824;2024-02-04T12:35:13;102082.97;;;11.23;100.00
61119;BME280;51448;51.660;5.824;2024-02-04T12:37:56;102066.38;;;11.23;100.00
61119;BME280;51448;51.660;5.824;2024-02-04T12:40:31;102079.06;;;11.24;100.00
61119;BME280;51448;51.660;5.824;2024-02-04T12:43:11;102070.50;;;11.25;100.00
61119;BME280;51448;51.660;5.824;2024-02-04T12:45:44;102060.56;;;11.24;100.00
61119;BME280;51448;51.660;5.824;2024-02-04T12:48:15;102065.81;;;11.26;100.00
61119;BME280;51448;51.660;5.824;2024-02-04T12:50:54;102044.28;;;11.23;100.00
61119;BME280;51448;51.660;5.824;2024-02-04T12:53:24;102040.13;;;11.25;100.00
61119;BME280;51448;51.660;5.824;2024-02-04T12:55:58;102046.16;;;11.27;100.00
61119;BME280;51448;51.660;5.824;2024-02-04T12:58:27;102045.03;;;11.28;100.00
61119;BME280;51448;51.660;5.824;2024-02-04T13:01:00;102052.19;;;11.29;100.00
61119;BME280;51448;51.660;5.824;2024-02-04T13:03:32;102061.31;;;11.30;100.00
61119;BME280;51448;51.660;5.824;2024-02-04T13:06:00;102052.19;;;11.29;100.00
61119;BME280;51448;51.660;5.824;2024-02-04T13:08:28;102066.03;;;11.29;100.00